Terminal Aerodrome Forecast
Issued by NWS

Home | Current Version | Previous Version | Text Only | Print | Product List | Glossary On
Versions: 1 2 3 4 5 6 7 8 9 10 11 12 13 14 15 16 17 18 19 20 21 22 23 24 25 26 27 28
000
FTUS43 KPAH 311924 AAA
TAFOWB
TAF AMD
KOWB 311924Z 3119/0118 18008KT P6SM SCT060 BKN150
     FM010000 12003KT P6SM FEW050 SCT100
     FM011400 22006KT P6SM SCT050 BKN250=

USA.gov is the U.S. government's official web portal to all federal, state and local government web resources and services.